createdAt,value
2022-12-18T00:00:24.824Z,0
2022-12-18T00:05:02.832Z,0
2022-12-18T00:10:01.740Z,0
2022-12-18T00:15:01.209Z,0
2022-12-18T00:20:00.638Z,0
2022-12-18T00:24:59.216Z,0
2022-12-18T00:29:57.864Z,0
2022-12-18T00:34:57.432Z,0
2022-12-18T00:39:56.643Z,0
2022-12-18T00:44:56.618Z,0
2022-12-18T00:49:56.981Z,0
2022-12-18T00:54:56.422Z,0
2022-12-18T00:58:58.196Z,0
2022-12-18T01:03:56.487Z,0
2022-12-18T01:08:55.787Z,0
2022-12-18T01:13:55.974Z,0
2022-12-18T01:18:55.132Z,0
2022-12-18T01:23:54.927Z,0
2022-12-18T01:28:53.820Z,0
2022-12-18T01:33:52.638Z,0
2022-12-18T01:38:52.076Z,0
2022-12-18T01:43:53.020Z,0
2022-12-18T01:48:50.886Z,0
2022-12-18T01:53:50.139Z,0
2022-12-18T01:58:35.508Z,0
2022-12-18T02:03:36.075Z,0
2022-12-18T02:08:36.017Z,0
2022-12-18T02:13:34.839Z,0
2022-12-18T02:18:34.041Z,0
2022-12-18T02:23:33.687Z,0
2022-12-18T02:28:33.024Z,0
2022-12-18T02:33:31.071Z,0
2022-12-18T02:38:31.374Z,0
2022-12-18T02:43:31.077Z,0
2022-12-18T02:48:28.688Z,0
2022-12-18T02:53:27.918Z,0
2022-12-18T02:58:27.302Z,0
2022-12-18T02:59:48.572Z,0
2022-12-18T03:04:47.578Z,0
2022-12-18T03:09:45.995Z,0
2022-12-18T03:14:45.100Z,0
2022-12-18T03:19:44.781Z,0
2022-12-18T03:24:44.797Z,0
2022-12-18T03:29:43.429Z,0
2022-12-18T03:34:42.964Z,0
2022-12-18T03:39:41.723Z,0
2022-12-18T03:44:41.925Z,0
2022-12-18T03:49:41.967Z,0
2022-12-18T03:54:39.387Z,0
2022-12-18T03:58:52.173Z,0
2022-12-18T04:03:52.209Z,0
2022-12-18T04:08:51.880Z,0
2022-12-18T04:13:51.377Z,0
2022-12-18T04:18:50.610Z,0
2022-12-18T04:23:50.246Z,0
2022-12-18T04:28:49.270Z,0
2022-12-18T04:33:49.100Z,0
2022-12-18T04:38:48.450Z,0
2022-12-18T04:43:48.343Z,0
2022-12-18T04:48:47.003Z,0
2022-12-18T04:53:46.221Z,0
2022-12-18T04:58:45.087Z,0
2022-12-18T05:03:47.094Z,0
2022-12-18T05:08:44.523Z,0
2022-12-18T05:13:45.056Z,0
2022-12-18T05:18:43.053Z,0
2022-12-18T05:23:45.006Z,0
2022-12-18T05:28:42.095Z,0
2022-12-18T05:33:44.867Z,0
2022-12-18T05:38:40.525Z,0
2022-12-18T05:43:42.879Z,0
2022-12-18T05:48:38.969Z,0
2022-12-18T05:53:39.217Z,0
2022-12-18T05:58:37.586Z,0
2022-12-18T05:59:58.582Z,0
2022-12-18T06:04:58.869Z,0
2022-12-18T06:09:57.046Z,0
2022-12-18T06:14:56.345Z,0
2022-12-18T06:19:55.529Z,0
2022-12-18T06:24:55.699Z,0
2022-12-18T06:29:55.097Z,0
2022-12-18T06:34:54.150Z,0
2022-12-18T06:39:53.256Z,0
2022-12-18T06:44:52.660Z,0
2022-12-18T06:49:52.211Z,0
2022-12-18T06:54:51.183Z,0
2022-12-18T06:58:53.729Z,0
2022-12-18T07:03:53.600Z,0
2022-12-18T07:08:52.370Z,0
2022-12-18T07:13:51.796Z,0
2022-12-18T07:18:50.794Z,0
2022-12-18T07:23:50.193Z,0
2022-12-18T07:28:49.465Z,0
2022-12-18T07:33:49.176Z,0
2022-12-18T07:38:49.626Z,0
2022-12-18T07:43:49.260Z,0
2022-12-18T07:48:52.810Z,0
2022-12-18T07:53:52.811Z,0
2022-12-18T07:58:48.871Z,0
2022-12-18T08:03:45.938Z,0.01
2022-12-18T08:08:45.341Z,0.01
2022-12-18T08:13:45.994Z,0.01
2022-12-18T08:18:44.534Z,0.01
2022-12-18T08:23:47.513Z,0.01
2022-12-18T08:28:42.834Z,0.02
2022-12-18T08:33:45.448Z,0.02
2022-12-18T08:38:43.389Z,0.02
2022-12-18T08:43:42.054Z,0.02
2022-12-18T08:48:39.385Z,0.03
2022-12-18T08:53:41.693Z,0.03
2022-12-18T08:58:39.908Z,0.03
2022-12-18T09:00:00.210Z,0.03
2022-12-18T09:05:00.489Z,0.03
2022-12-18T09:09:58.937Z,0.04
2022-12-18T09:14:59.566Z,0.04
2022-12-18T09:19:57.093Z,0.05
2022-12-18T09:24:57.787Z,0.06
2022-12-18T09:29:57.758Z,0.06
2022-12-18T09:34:57.422Z,0.06
2022-12-18T09:39:55.298Z,0.06
2022-12-18T09:44:55.439Z,0.06
2022-12-18T09:49:54.795Z,0.07
2022-12-18T09:54:54.576Z,0.07
2022-12-18T09:59:24.622Z,0.08
2022-12-18T10:04:25.359Z,0.08
2022-12-18T10:09:24.412Z,0.08
2022-12-18T10:14:23.996Z,0.09
2022-12-18T10:19:23.675Z,0.09
2022-12-18T10:24:23.641Z,0.09
2022-12-18T10:29:24.938Z,0.1
2022-12-18T10:34:21.651Z,0.1
2022-12-18T10:39:22.853Z,0.11
2022-12-18T10:44:20.986Z,0.11
2022-12-18T10:49:09.765Z,0.11
2022-12-18T10:54:09.625Z,0.12
2022-12-18T10:59:03.114Z,0.12
2022-12-18T11:04:06.258Z,0.12
2022-12-18T11:09:04.487Z,0.12
2022-12-18T11:14:03.570Z,0.11
2022-12-18T11:19:02.737Z,0.1
2022-12-18T11:24:02.216Z,0.1
2022-12-18T11:29:01.019Z,0.09
2022-12-18T11:34:32.282Z,0.09
2022-12-18T11:38:59.239Z,0.1
2022-12-18T11:43:58.999Z,0.1
2022-12-18T11:48:57.678Z,0.1
2022-12-18T11:53:56.204Z,0.1
2022-12-18T11:58:55.640Z,0.1
2022-12-18T12:03:55.498Z,0.1
2022-12-18T12:08:55.439Z,0.1
2022-12-18T12:13:54.041Z,0.1
2022-12-18T12:18:54.778Z,0.1
2022-12-18T12:23:52.119Z,0.11
2022-12-18T12:28:52.159Z,0.11
2022-12-18T12:33:52.006Z,0.1
2022-12-18T12:38:55.158Z,0.11
2022-12-18T12:43:55.870Z,0.1
2022-12-18T12:48:48.927Z,0.1
2022-12-18T12:53:49.830Z,0.09
2022-12-18T12:58:48.276Z,0.09
2022-12-18T13:03:51.068Z,0.09
2022-12-18T13:08:47.139Z,0.08
2022-12-18T13:13:52.025Z,0.08
2022-12-18T13:18:47.871Z,0.07
2022-12-18T13:23:46.703Z,0.07
2022-12-18T13:28:43.400Z,0.07
2022-12-18T13:34:32.122Z,0.06
2022-12-18T13:38:41.893Z,0.06
2022-12-18T13:43:43.215Z,0.06
2022-12-18T13:48:40.836Z,0.05
2022-12-18T13:53:42.519Z,0.05
2022-12-18T13:58:38.151Z,0.04
2022-12-18T13:59:58.711Z,0.04
2022-12-18T14:04:57.845Z,0.04
2022-12-18T14:10:50.903Z,0.04
2022-12-18T14:14:59.586Z,0.03
2022-12-18T14:19:55.300Z,0.03
2022-12-18T14:24:54.564Z,0.03
2022-12-18T14:29:53.992Z,0.02
2022-12-18T14:34:54.432Z,0.02
2022-12-18T14:39:53.068Z,0.02
2022-12-18T14:45:17.347Z,0.01
2022-12-18T14:49:52.541Z,0.01
2022-12-18T14:54:52.583Z,0.01
2022-12-18T14:59:27.204Z,0.01
2022-12-18T15:04:23.708Z,0
2022-12-18T15:09:22.401Z,0
2022-12-18T15:14:22.973Z,0
2022-12-18T15:19:09.251Z,0
2022-12-18T15:24:09.095Z,0
2022-12-18T15:29:16.677Z,0
2022-12-18T15:34:08.393Z,0
2022-12-18T15:39:09.456Z,0
2022-12-18T15:44:06.507Z,0
2022-12-18T15:49:05.890Z,0
2022-12-18T15:54:04.938Z,0
2022-12-18T15:58:19.038Z,0
2022-12-18T16:03:28.792Z,0
2022-12-18T16:08:26.027Z,0
2022-12-18T16:13:26.918Z,0
2022-12-18T16:18:24.225Z,0
2022-12-18T16:23:24.686Z,0
2022-12-18T16:28:24.524Z,0
2022-12-18T16:33:22.379Z,0
2022-12-18T16:38:22.035Z,0
2022-12-18T16:43:24.098Z,0
2022-12-18T16:48:09.891Z,0
2022-12-18T16:53:09.057Z,0
2022-12-18T16:58:08.165Z,0
2022-12-18T16:59:30.645Z,0
2022-12-18T17:04:29.520Z,0
2022-12-18T17:09:27.738Z,0
2022-12-18T17:14:27.284Z,0
2022-12-18T17:19:26.266Z,0
2022-12-18T17:24:35.872Z,0
2022-12-18T17:29:27.737Z,0
2022-12-18T17:34:24.876Z,0
2022-12-18T17:39:24.609Z,0
2022-12-18T17:44:24.737Z,0
2022-12-18T17:49:25.082Z,0
2022-12-18T17:54:23.150Z,0
2022-12-18T17:59:22.922Z,0
2022-12-18T18:04:36.235Z,0
2022-12-18T18:09:23.072Z,0
2022-12-18T18:14:10.863Z,0
2022-12-18T18:19:10.155Z,0
2022-12-18T18:24:10.711Z,0
2022-12-18T18:29:10.599Z,0
2022-12-18T18:34:09.817Z,0
2022-12-18T18:39:11.094Z,0
2022-12-18T18:44:07.370Z,0
2022-12-18T18:49:07.156Z,0
2022-12-18T18:54:04.548Z,0
2022-12-18T18:58:52.756Z,0
2022-12-18T19:03:53.628Z,0
2022-12-18T19:08:53.251Z,0
2022-12-18T19:13:50.274Z,0
2022-12-18T19:18:49.937Z,0
2022-12-18T19:23:48.574Z,0
2022-12-18T19:28:49.993Z,0
2022-12-18T19:33:48.451Z,0
2022-12-18T19:38:48.888Z,0
2022-12-18T19:43:46.871Z,0
2022-12-18T19:48:47.858Z,0
2022-12-18T19:53:44.088Z,0
2022-12-18T19:58:46.055Z,0
2022-12-18T20:03:56.171Z,0
2022-12-18T20:08:43.404Z,0
2022-12-18T20:13:43.684Z,0
2022-12-18T20:18:41.753Z,0
2022-12-18T20:23:41.850Z,0
2022-12-18T20:28:43.103Z,0
2022-12-18T20:33:40.766Z,0
2022-12-18T20:38:40.030Z,0
2022-12-18T20:43:37.605Z,0
2022-12-18T20:48:37.094Z,0
2022-12-18T20:53:38.580Z,0
2022-12-18T20:58:34.383Z,0
2022-12-18T20:59:54.943Z,0
2022-12-18T21:04:54.534Z,0
2022-12-18T21:09:53.937Z,0
2022-12-18T21:14:53.731Z,0
2022-12-18T21:19:53.062Z,0
2022-12-18T21:24:51.789Z,0
2022-12-18T21:29:54.899Z,0
2022-12-18T21:34:51.358Z,0
2022-12-18T21:39:50.080Z,0
2022-12-18T21:44:49.584Z,0
2022-12-18T21:49:49.277Z,0
2022-12-18T21:54:47.392Z,0
2022-12-18T21:59:18.151Z,0
2022-12-18T22:04:19.109Z,0
2022-12-18T22:09:17.902Z,0
2022-12-18T22:14:26.288Z,0
2022-12-18T22:19:25.978Z,0
2022-12-18T22:24:26.515Z,0
2022-12-18T22:29:26.918Z,0
2022-12-18T22:34:26.092Z,0
2022-12-18T22:39:25.335Z,0
2022-12-18T22:44:24.020Z,0
2022-12-18T22:49:22.607Z,0
2022-12-18T22:54:21.918Z,0
2022-12-18T22:59:00.968Z,0
2022-12-18T23:03:58.584Z,0
2022-12-18T23:08:59.125Z,0
2022-12-18T23:14:01.049Z,0
2022-12-18T23:18:56.648Z,0
2022-12-18T23:24:01.515Z,0
2022-12-18T23:28:55.750Z,0
2022-12-18T23:33:56.239Z,0
2022-12-18T23:38:55.222Z,0
2022-12-18T23:43:53.766Z,0
2022-12-18T23:48:52.667Z,0
2022-12-18T23:53:52.514Z,0
2022-12-18T23:58:55.602Z,0
